Time;durP1;ratioP1;P1;durP2;ratioP2;P2;SDS_P1;SDS_P2;PMS_P1;PMS_P2;Temp;Humidity;BMP_temperature;BMP_pressure;BME280_temperature;BME280_humidity;BME280_pressure;Samples;Min_cycle;Max_cycle;Signal;HPM_P1;HPM_P2
2022/11/13 00:00:55;;;;;;;;;;;3.80;99.90;;;;;;1833991;77;20115;-67
2022/11/13 00:03:22;;;;;;;;;;;3.90;99.90;;;;;;1866757;76;20116;-69
2022/11/13 00:05:50;;;;;;;;;;;3.70;99.90;;;;;;1860532;76;20121;-70
2022/11/13 00:08:18;;;;;;;;;;;3.70;99.90;;;;;;1866582;75;20113;-71
2022/11/13 00:10:48;;;;;;;;;;;3.90;99.90;;;;;;1865353;76;20126;-71
2022/11/13 00:13:16;;;;;;;;;;;3.80;99.90;;;;;;1864545;76;20131;-70
2022/11/13 00:15:43;;;;;;;;;;;3.60;99.90;;;;;;1862115;76;20121;-72
2022/11/13 00:18:11;;;;;;;;;;;3.70;99.90;;;;;;1871152;76;20268;-72
2022/11/13 00:20:39;;;;;;;;;;;3.60;99.90;;;;;;1864013;75;20132;-74
2022/11/13 00:23:07;;;;;;;;;;;3.60;99.90;;;;;;1865909;76;20208;-72
2022/11/13 00:25:34;;;;;;;;;;;3.70;99.90;;;;;;1864631;75;20139;-71
2022/11/13 00:28:01;;;;;;;;;;;3.70;99.90;;;;;;1872781;76;20156;-71
2022/11/13 00:30:29;;;;;;;;;;;3.60;99.90;;;;;;1860107;76;20162;-71
2022/11/13 00:32:55;;;;;;;;;;;3.50;99.90;;;;;;1857282;75;20123;-71
2022/11/13 00:35:22;;;;;;;;;;;3.40;99.90;;;;;;1865928;75;20209;-71
2022/11/13 00:37:49;;;;;;;;;;;3.50;99.90;;;;;;1876322;76;20239;-71
2022/11/13 00:40:16;;;;;;;;;;;3.70;99.90;;;;;;1848085;75;20120;-73
2022/11/13 00:42:42;;;;;;;;;;;3.70;99.90;;;;;;1857946;76;20186;-72
2022/11/13 00:45:13;;;;;;;;;;;3.80;99.90;;;;;;1864926;76;20121;-71
2022/11/13 00:47:39;;;;;;;;;;;3.80;99.90;;;;;;1872539;76;20135;-72
2022/11/13 00:50:06;;;;;;;;;;;3.80;99.90;;;;;;1866931;75;20123;-71
2022/11/13 00:52:35;;;;;;;;;;;3.80;99.90;;;;;;1893975;75;20164;-72
2022/11/13 00:55:01;;;;;;;;;;;3.80;99.90;;;;;;1878925;76;20143;-73
2022/11/13 00:57:28;;;;;;;;;;;3.60;99.90;;;;;;1862209;76;20371;-71
2022/11/13 00:59:55;;;;;;;;;;;3.60;99.90;;;;;;1868690;76;20123;-72
2022/11/13 01:02:22;;;;;;;;;;;3.50;99.90;;;;;;1863541;76;20150;-71
2022/11/13 01:04:49;;;;;;;;;;;3.40;99.90;;;;;;1868260;76;20328;-72
2022/11/13 01:07:18;;;;;;;;;;;3.20;99.90;;;;;;1868449;76;20128;-72
2022/11/13 01:09:46;;;;;;;;;;;3.20;99.90;;;;;;1843870;77;20148;-71
2022/11/13 01:12:13;;;;;;;;;;;3.10;99.90;;;;;;1869961;76;20155;-72
2022/11/13 01:14:39;;;;;;;;;;;3.30;99.90;;;;;;1875684;75;20124;-72
2022/11/13 01:17:06;;;;;;;;;;;3.30;99.90;;;;;;1863542;76;20113;-72
2022/11/13 01:19:33;;;;;;;;;;;3.30;99.90;;;;;;1871649;76;20116;-71
2022/11/13 01:21:59;;;;;;;;;;;3.40;99.90;;;;;;1874927;75;20109;-71
2022/11/13 01:24:26;;;;;;;;;;;3.20;99.90;;;;;;1862263;75;20152;-72
2022/11/13 01:26:53;;;;;;;;;;;3.20;99.90;;;;;;1878763;75;20112;-74
2022/11/13 01:29:19;;;;;;;;;;;3.20;99.90;;;;;;1879736;75;20116;-73
2022/11/13 01:31:46;;;;;;;;;;;3.30;99.90;;;;;;1872107;75;20124;-73
2022/11/13 01:34:13;;;;;;;;;;;3.40;99.90;;;;;;1880366;75;20158;-72
2022/11/13 01:36:39;;;;;;;;;;;3.50;99.90;;;;;;1874078;76;20150;-73
2022/11/13 01:39:06;;;;;;;;;;;3.50;99.90;;;;;;1868164;75;20120;-73
2022/11/13 01:41:33;;;;;;;;;;;3.50;99.90;;;;;;1881356;75;20370;-73
2022/11/13 01:44:00;;;;;;;;;;;3.50;99.90;;;;;;1866428;76;20120;-73
2022/11/13 01:46:27;;;;;;;;;;;3.50;99.90;;;;;;1863816;76;20159;-73
2022/11/13 01:49:11;;;;;;;;;;;3.60;99.90;;;;;;1862511;76;20120;-71
2022/11/13 01:51:47;;;;;;;;;;;3.40;99.90;;;;;;1869872;76;20125;-72
2022/11/13 01:54:15;;;;;;;;;;;3.30;99.90;;;;;;1872490;75;20187;-70
2022/11/13 01:56:42;;;;;;;;;;;3.20;99.90;;;;;;1861275;77;20121;-71
2022/11/13 01:59:10;;;;;;;;;;;3.20;99.90;;;;;;1865465;76;20124;-72
2022/11/13 02:01:36;;;;;;;;;;;3.20;99.90;;;;;;1869161;76;20121;-73
2022/11/13 02:04:03;;;;;;;;;;;3.20;99.90;;;;;;1867992;76;20117;-72
2022/11/13 02:06:35;;;;;;;;;;;3.40;99.90;;;;;;1865862;77;20120;-73
2022/11/13 02:09:02;;;;;;;;;;;3.40;99.90;;;;;;1864512;76;20185;-71
2022/11/13 02:11:29;;;;;;;;;;;3.20;99.90;;;;;;1865882;76;20113;-72
2022/11/13 02:13:56;;;;;;;;;;;3.10;99.90;;;;;;1863223;76;20113;-73
2022/11/13 02:16:22;;;;;;;;;;;3.10;99.90;;;;;;1878620;76;20112;-74
2022/11/13 02:18:49;;;;;;;;;;;3.00;99.90;;;;;;1866668;76;20195;-73
2022/11/13 02:21:17;;;;;;;;;;;3.20;99.90;;;;;;1858316;76;20341;-72
2022/11/13 02:23:52;;;;;;;;;;;3.20;99.90;;;;;;1873166;75;20117;-73
2022/11/13 02:26:19;;;;;;;;;;;3.00;99.90;;;;;;1880890;76;20120;-70
2022/11/13 02:28:46;;;;;;;;;;;2.80;99.90;;;;;;1873698;76;20113;-72
2022/11/13 02:31:13;;;;;;;;;;;3.00;99.90;;;;;;1864957;76;20128;-71
2022/11/13 02:33:39;;;;;;;;;;;2.90;99.90;;;;;;1868634;76;20159;-71
2022/11/13 02:36:06;;;;;;;;;;;2.90;99.90;;;;;;1870188;76;20128;-71
2022/11/13 02:38:33;;;;;;;;;;;2.90;99.90;;;;;;1866505;76;20119;-72
2022/11/13 02:41:00;;;;;;;;;;;2.80;99.90;;;;;;1856708;75;20124;-72
2022/11/13 02:43:26;;;;;;;;;;;2.80;99.90;;;;;;1864273;76;20120;-71
2022/11/13 02:45:53;;;;;;;;;;;2.80;99.90;;;;;;1870219;76;20180;-71
2022/11/13 02:48:20;;;;;;;;;;;2.80;99.90;;;;;;1864210;76;20331;-72
2022/11/13 02:50:46;;;;;;;;;;;2.80;99.90;;;;;;1874687;76;20170;-72
2022/11/13 02:53:13;;;;;;;;;;;2.90;99.90;;;;;;1865320;76;20352;-72
2022/11/13 02:55:40;;;;;;;;;;;2.90;99.90;;;;;;1883032;75;20120;-71
2022/11/13 02:58:06;;;;;;;;;;;2.80;99.90;;;;;;1887561;75;20344;-71
2022/11/13 03:00:33;;;;;;;;;;;2.90;99.90;;;;;;1871034;76;20124;-73
2022/11/13 03:03:00;;;;;;;;;;;3.00;99.90;;;;;;1867599;76;20324;-71
2022/11/13 03:05:26;;;;;;;;;;;3.00;99.90;;;;;;1859974;76;20132;-70
2022/11/13 03:07:53;;;;;;;;;;;3.00;99.90;;;;;;1876073;76;20332;-70
2022/11/13 03:10:20;;;;;;;;;;;2.90;99.90;;;;;;1872552;75;20121;-71
2022/11/13 03:12:47;;;;;;;;;;;3.00;99.90;;;;;;1884581;76;20339;-71
2022/11/13 03:15:13;;;;;;;;;;;3.00;99.90;;;;;;1865499;76;20185;-71
2022/11/13 03:17:40;;;;;;;;;;;3.00;99.90;;;;;;1865065;75;20162;-72
2022/11/13 03:20:07;;;;;;;;;;;3.00;99.90;;;;;;1880888;75;20128;-71
2022/11/13 03:22:33;;;;;;;;;;;2.90;99.90;;;;;;1868558;76;20117;-71
2022/11/13 03:25:00;;;;;;;;;;;2.90;99.90;;;;;;1882590;75;20165;-71
2022/11/13 03:27:27;;;;;;;;;;;3.10;99.90;;;;;;1873016;75;20129;-71
2022/11/13 03:29:54;;;;;;;;;;;3.00;99.90;;;;;;1861068;76;20367;-71
2022/11/13 03:32:20;;;;;;;;;;;3.00;99.90;;;;;;1877623;75;20158;-71
2022/11/13 03:34:47;;;;;;;;;;;3.00;99.90;;;;;;1870437;75;20374;-71
2022/11/13 03:37:14;;;;;;;;;;;3.00;99.90;;;;;;1859862;76;20124;-71
2022/11/13 03:39:40;;;;;;;;;;;2.90;99.90;;;;;;1861864;76;20341;-72
2022/11/13 03:42:07;;;;;;;;;;;2.90;99.90;;;;;;1869545;75;20124;-72
2022/11/13 03:44:34;;;;;;;;;;;3.00;99.90;;;;;;1860309;75;20387;-70
2022/11/13 03:47:00;;;;;;;;;;;3.10;99.90;;;;;;1871469;75;20154;-71
2022/11/13 03:49:27;;;;;;;;;;;3.10;99.90;;;;;;1875151;74;20139;-72
2022/11/13 03:51:54;;;;;;;;;;;3.00;99.90;;;;;;1874330;76;20124;-71
2022/11/13 03:54:20;;;;;;;;;;;2.80;99.90;;;;;;1860941;77;20348;-70
2022/11/13 03:56:47;;;;;;;;;;;2.80;99.90;;;;;;1865809;76;20120;-71
2022/11/13 03:59:14;;;;;;;;;;;2.80;99.90;;;;;;1862867;77;20159;-71
2022/11/13 04:01:40;;;;;;;;;;;2.90;99.90;;;;;;1866525;77;20121;-70
2022/11/13 04:04:07;;;;;;;;;;;3.00;99.90;;;;;;1857322;76;20216;-68
2022/11/13 04:06:34;;;;;;;;;;;3.10;99.90;;;;;;1861699;76;20163;-67
2022/11/13 04:09:01;;;;;;;;;;;3.00;99.90;;;;;;1867021;76;20135;-67
2022/11/13 04:11:27;;;;;;;;;;;3.10;99.90;;;;;;1880344;76;20128;-70
2022/11/13 04:13:54;;;;;;;;;;;3.00;99.90;;;;;;1888272;75;20170;-67
2022/11/13 04:16:21;;;;;;;;;;;3.10;99.90;;;;;;1869634;76;20116;-68
2022/11/13 04:18:47;;;;;;;;;;;3.20;99.90;;;;;;1863308;76;20218;-72
2022/11/13 04:21:14;;;;;;;;;;;3.00;99.90;;;;;;1861418;76;20120;-70
2022/11/13 04:23:41;;;;;;;;;;;2.80;99.90;;;;;;1865953;75;20220;-71
2022/11/13 04:26:07;;;;;;;;;;;2.90;99.90;;;;;;1863867;77;20159;-72
2022/11/13 04:28:34;;;;;;;;;;;2.90;99.90;;;;;;1865562;76;20128;-72
2022/11/13 04:31:01;;;;;;;;;;;3.00;99.90;;;;;;1860894;77;20155;-71
2022/11/13 04:33:27;;;;;;;;;;;3.00;99.90;;;;;;1865680;76;20121;-72
2022/11/13 04:35:54;;;;;;;;;;;2.90;99.90;;;;;;1869418;75;20119;-72
2022/11/13 04:38:21;;;;;;;;;;;3.00;99.90;;;;;;1883232;74;20208;-73
2022/11/13 04:42:47;;;;;;;;;;;3.00;99.90;;;;;;1877917;76;20124;-73
2022/11/13 04:43:19;;;;;;;;;;;2.90;99.90;;;;;;1878525;75;20321;-73
2022/11/13 04:45:46;;;;;;;;;;;2.80;99.90;;;;;;1880648;76;20117;-72
2022/11/13 04:48:12;;;;;;;;;;;2.80;99.90;;;;;;1863793;76;20379;-72
2022/11/13 04:50:39;;;;;;;;;;;2.70;99.90;;;;;;1873390;76;20105;-72
2022/11/13 04:53:06;;;;;;;;;;;2.90;99.90;;;;;;1862053;76;20116;-72
2022/11/13 04:55:32;;;;;;;;;;;3.00;99.90;;;;;;1855518;77;20234;-71
2022/11/13 04:57:59;;;;;;;;;;;3.00;99.90;;;;;;1859969;76;20131;-72
2022/11/13 05:00:26;;;;;;;;;;;2.70;99.90;;;;;;1871390;76;20109;-71
2022/11/13 05:02:52;;;;;;;;;;;2.60;99.90;;;;;;1874226;76;20123;-71
2022/11/13 05:05:19;;;;;;;;;;;2.50;99.90;;;;;;1871745;76;20154;-72
2022/11/13 05:07:46;;;;;;;;;;;2.50;99.90;;;;;;1866792;76;20112;-71
2022/11/13 05:10:12;;;;;;;;;;;2.40;99.90;;;;;;1858815;76;20159;-72
2022/11/13 05:12:39;;;;;;;;;;;2.40;99.90;;;;;;1861864;76;20124;-71
2022/11/13 05:15:06;;;;;;;;;;;2.40;99.90;;;;;;1876662;76;20128;-72
2022/11/13 05:17:33;;;;;;;;;;;2.60;99.90;;;;;;1875339;76;20171;-71
2022/11/13 05:19:59;;;;;;;;;;;2.60;99.90;;;;;;1891782;75;20108;-70
2022/11/13 05:22:26;;;;;;;;;;;2.40;99.90;;;;;;1888443;76;20339;-71
2022/11/13 05:24:53;;;;;;;;;;;2.40;99.90;;;;;;1893725;74;20159;-71
2022/11/13 05:27:19;;;;;;;;;;;2.40;99.90;;;;;;1879673;75;20320;-70
2022/11/13 05:29:46;;;;;;;;;;;2.40;99.90;;;;;;1863534;76;20154;-72
2022/11/13 05:32:13;;;;;;;;;;;2.40;99.90;;;;;;1857851;76;20446;-71
2022/11/13 05:34:40;;;;;;;;;;;2.40;99.90;;;;;;1861636;76;20120;-71
2022/11/13 05:37:06;;;;;;;;;;;2.50;99.90;;;;;;1870885;75;20337;-71
2022/11/13 05:39:33;;;;;;;;;;;2.50;99.90;;;;;;1867852;76;20264;-71
2022/11/13 05:42:00;;;;;;;;;;;2.60;99.90;;;;;;1863964;76;20348;-71
2022/11/13 05:44:26;;;;;;;;;;;2.60;99.90;;;;;;1874035;76;20120;-72
2022/11/13 05:46:53;;;;;;;;;;;2.50;99.90;;;;;;1879011;76;20410;-71
2022/11/13 05:49:20;;;;;;;;;;;2.50;99.90;;;;;;1886708;76;20154;-71
2022/11/13 05:51:46;;;;;;;;;;;2.50;99.90;;;;;;1868393;75;20163;-72
2022/11/13 05:54:13;;;;;;;;;;;2.50;99.90;;;;;;1867531;76;20221;-73
2022/11/13 05:56:40;;;;;;;;;;;2.50;99.90;;;;;;1855420;77;20120;-72
2022/11/13 05:59:07;;;;;;;;;;;2.50;99.90;;;;;;1860130;76;20121;-71
2022/11/13 06:01:34;;;;;;;;;;;2.40;99.90;;;;;;1871187;76;20134;-71
2022/11/13 06:04:01;;;;;;;;;;;2.40;99.90;;;;;;1870057;76;20127;-71
2022/11/13 06:06:28;;;;;;;;;;;2.40;99.90;;;;;;1878021;75;20352;-71
2022/11/13 06:08:55;;;;;;;;;;;2.50;99.90;;;;;;1871659;76;20132;-72
2022/11/13 06:11:23;;;;;;;;;;;2.50;99.90;;;;;;1864497;76;20116;-72
2022/11/13 06:13:49;;;;;;;;;;;2.40;99.90;;;;;;1860454;76;20121;-72
2022/11/13 06:16:20;;;;;;;;;;;2.40;99.90;;;;;;1873118;76;20117;-72
2022/11/13 06:18:48;;;;;;;;;;;2.50;99.90;;;;;;1855221;76;20185;-73
2022/11/13 06:21:15;;;;;;;;;;;2.40;99.90;;;;;;1864659;76;20116;-72
2022/11/13 06:23:42;;;;;;;;;;;2.30;99.90;;;;;;1859222;75;20117;-71
2022/11/13 06:26:11;;;;;;;;;;;2.40;99.90;;;;;;1892436;75;20132;-71
2022/11/13 06:28:37;;;;;;;;;;;2.50;99.90;;;;;;1863349;75;20113;-73
2022/11/13 06:31:05;;;;;;;;;;;2.40;99.90;;;;;;1865592;76;20109;-73
2022/11/13 06:33:31;;;;;;;;;;;2.40;99.90;;;;;;1876808;75;20109;-71
2022/11/13 06:36:00;;;;;;;;;;;2.50;99.90;;;;;;1865498;76;20167;-72
2022/11/13 06:38:28;;;;;;;;;;;2.70;99.90;;;;;;1861145;76;20124;-70
2022/11/13 06:40:56;;;;;;;;;;;2.80;99.90;;;;;;1874623;76;20131;-69
2022/11/13 06:43:23;;;;;;;;;;;2.80;99.90;;;;;;1870232;75;20127;-71
2022/11/13 06:45:49;;;;;;;;;;;2.90;99.90;;;;;;1892981;76;20120;-69
2022/11/13 06:48:16;;;;;;;;;;;2.90;99.90;;;;;;1872426;75;20127;-71
2022/11/13 06:50:43;;;;;;;;;;;2.80;99.90;;;;;;1865475;75;20116;-72
2022/11/13 06:53:09;;;;;;;;;;;2.80;99.90;;;;;;1868324;76;20166;-73
2022/11/13 06:55:38;;;;;;;;;;;2.70;99.90;;;;;;1867727;76;20124;-71
2022/11/13 06:58:04;;;;;;;;;;;2.70;99.90;;;;;;1856609;76;20236;-70
2022/11/13 07:00:31;;;;;;;;;;;2.70;99.90;;;;;;1874780;75;20123;-70
2022/11/13 07:02:58;;;;;;;;;;;2.60;99.90;;;;;;1877925;75;20121;-71
2022/11/13 07:05:24;;;;;;;;;;;2.60;99.90;;;;;;1868403;76;20150;-70
2022/11/13 07:07:51;;;;;;;;;;;2.60;99.90;;;;;;1860746;76;20335;-71
2022/11/13 07:10:18;;;;;;;;;;;2.60;99.90;;;;;;1863903;76;20175;-72
2022/11/13 07:12:45;;;;;;;;;;;2.60;99.90;;;;;;1868754;75;20152;-72
2022/11/13 07:15:11;;;;;;;;;;;2.50;99.90;;;;;;1879591;75;20132;-72
2022/11/13 07:17:38;;;;;;;;;;;2.50;99.90;;;;;;1871059;76;20167;-69
2022/11/13 07:20:05;;;;;;;;;;;2.30;99.90;;;;;;1872336;76;20175;-72
2022/11/13 07:22:31;;;;;;;;;;;2.30;99.90;;;;;;1866903;76;20149;-72
2022/11/13 07:24:58;;;;;;;;;;;2.50;99.90;;;;;;1856426;77;20186;-72
2022/11/13 07:27:25;;;;;;;;;;;2.50;99.90;;;;;;1881238;75;20123;-71
2022/11/13 07:29:52;;;;;;;;;;;2.60;99.90;;;;;;1892512;76;20268;-72
2022/11/13 07:32:18;;;;;;;;;;;2.60;99.90;;;;;;1865357;76;20121;-77
2022/11/13 07:34:45;;;;;;;;;;;2.70;99.90;;;;;;1872298;75;20120;-73
2022/11/13 07:37:12;;;;;;;;;;;2.80;99.90;;;;;;1859522;76;20124;-71
2022/11/13 07:39:38;;;;;;;;;;;3.00;99.90;;;;;;1859761;76;20177;-70
2022/11/13 07:42:05;;;;;;;;;;;3.00;99.90;;;;;;1857359;77;20146;-71
2022/11/13 07:44:32;;;;;;;;;;;3.10;99.90;;;;;;1875367;75;20348;-70
2022/11/13 07:46:59;;;;;;;;;;;3.10;99.90;;;;;;1876738;76;20116;-70
2022/11/13 07:49:26;;;;;;;;;;;2.80;99.90;;;;;;1875571;76;20120;-71
2022/11/13 07:51:52;;;;;;;;;;;3.00;99.90;;;;;;1870536;76;20344;-72
2022/11/13 07:54:19;;;;;;;;;;;3.30;99.90;;;;;;1875848;76;20124;-74
2022/11/13 07:56:46;;;;;;;;;;;3.30;99.90;;;;;;1862868;76;20343;-71
2022/11/13 07:59:12;;;;;;;;;;;3.30;99.90;;;;;;1888675;76;20166;-72
2022/11/13 08:01:39;;;;;;;;;;;3.30;99.90;;;;;;1868413;76;20109;-71
2022/11/13 08:04:06;;;;;;;;;;;2.90;99.90;;;;;;1869971;76;20120;-70
2022/11/13 08:06:34;;;;;;;;;;;3.00;99.90;;;;;;1867574;76;20128;-70
2022/11/13 08:09:01;;;;;;;;;;;3.00;99.90;;;;;;1882352;75;20120;-70
2022/11/13 08:11:28;;;;;;;;;;;2.70;99.90;;;;;;1886950;75;20155;-72
2022/11/13 08:13:54;;;;;;;;;;;2.80;99.90;;;;;;1871075;75;20154;-73
2022/11/13 08:16:22;;;;;;;;;;;2.90;99.90;;;;;;1880539;75;20131;-75
2022/11/13 08:18:49;;;;;;;;;;;3.00;99.90;;;;;;1859008;75;20116;-74
2022/11/13 08:21:16;;;;;;;;;;;3.10;99.90;;;;;;1873086;74;20320;-71
2022/11/13 08:23:42;;;;;;;;;;;2.90;99.90;;;;;;1861342;76;20113;-74
2022/11/13 08:26:09;;;;;;;;;;;3.10;99.90;;;;;;1861486;76;20301;-72
2022/11/13 08:28:36;;;;;;;;;;;3.30;99.90;;;;;;1860982;76;20136;-72
2022/11/13 08:31:02;;;;;;;;;;;3.40;99.90;;;;;;1864023;76;20124;-73
2022/11/13 08:33:29;;;;;;;;;;;3.40;99.90;;;;;;1855606;77;20120;-72
2022/11/13 08:35:56;;;;;;;;;;;3.50;99.90;;;;;;1855570;76;20120;-72
2022/11/13 08:38:23;;;;;;;;;;;3.50;99.90;;;;;;1871528;76;20277;-71
2022/11/13 08:40:50;;;;;;;;;;;3.60;99.90;;;;;;1875547;76;20328;-72
2022/11/13 08:43:16;;;;;;;;;;;3.80;99.90;;;;;;1865819;76;20123;-71
2022/11/13 08:45:46;;;;;;;;;;;3.80;99.90;;;;;;1866946;76;20344;-72
2022/11/13 08:48:13;;;;;;;;;;;4.10;99.90;;;;;;1874630;76;20116;-71
2022/11/13 08:50:40;;;;;;;;;;;4.20;99.90;;;;;;1870812;76;20118;-71
2022/11/13 08:53:06;;;;;;;;;;;4.40;99.90;;;;;;1879295;75;20128;-72
2022/11/13 08:55:33;;;;;;;;;;;4.10;99.90;;;;;;1884594;75;20124;-71
2022/11/13 08:58:00;;;;;;;;;;;3.90;99.90;;;;;;1864997;75;20128;-70
2022/11/13 09:00:27;;;;;;;;;;;3.70;99.90;;;;;;1886419;75;20151;-72
2022/11/13 09:02:55;;;;;;;;;;;3.70;99.90;;;;;;1876631;75;20171;-71
2022/11/13 09:05:22;;;;;;;;;;;3.50;99.90;;;;;;1873455;76;20155;-72
2022/11/13 09:07:48;;;;;;;;;;;3.70;99.90;;;;;;1856916;76;20171;-73
2022/11/13 09:10:17;;;;;;;;;;;3.80;99.90;;;;;;1863560;76;20114;-72
2022/11/13 09:12:44;;;;;;;;;;;3.80;99.90;;;;;;1874251;76;20124;-72
2022/11/13 09:15:11;;;;;;;;;;;3.90;99.90;;;;;;1866036;76;20383;-70
2022/11/13 09:17:37;;;;;;;;;;;4.00;99.90;;;;;;1871564;75;20128;-70
2022/11/13 09:20:23;;;;;;;;;;;4.00;99.90;;;;;;1861615;76;20120;-70
2022/11/13 09:22:52;;;;;;;;;;;4.10;99.90;;;;;;1943772;73;20146;-71
2022/11/13 09:25:18;;;;;;;;;;;4.10;99.90;;;;;;1944735;73;20212;-73
2022/11/13 09:27:47;;;;;;;;;;;4.10;99.90;;;;;;1943021;74;20172;-72
2022/11/13 09:30:13;;;;;;;;;;;4.00;99.90;;;;;;1946881;73;20231;-73
2022/11/13 09:32:40;;;;;;;;;;;4.10;99.90;;;;;;1950852;73;20141;-71
2022/11/13 09:35:07;;;;;;;;;;;4.20;99.90;;;;;;1945275;74;20238;-71
2022/11/13 09:37:34;;;;;;;;;;;4.20;99.90;;;;;;1944871;73;20147;-73
2022/11/13 09:40:00;;;;;;;;;;;4.30;99.90;;;;;;1895016;75;20385;-72
2022/11/13 09:42:27;;;;;;;;;;;4.40;99.90;;;;;;1891269;75;20130;-72
2022/11/13 09:44:56;;;;;;;;;;;4.40;99.90;;;;;;1898086;75;20147;-72
2022/11/13 09:47:30;;;;;;;;;;;4.60;99.90;;;;;;1932191;74;20119;-71
2022/11/13 09:50:01;;;;;;;;;;;4.70;99.90;;;;;;1937969;73;20105;-71
2022/11/13 09:52:35;;;;;;;;;;;4.30;99.90;;;;;;1887959;74;20238;-73
2022/11/13 09:55:03;;;;;;;;;;;4.30;99.90;;;;;;1883767;74;20149;-74
2022/11/13 09:57:34;;;;;;;;;;;4.30;99.90;;;;;;1917224;74;20340;-73
2022/11/13 10:00:03;;;;;;;;;;;4.30;99.90;;;;;;1930411;73;20386;-72
2022/11/13 10:02:37;;;;;;;;;;;4.30;99.90;;;;;;1918564;74;20285;-73
2022/11/13 10:05:23;;;;;;;;;;;4.60;99.90;;;;;;1959324;72;20166;-72
2022/11/13 10:08:01;;;;;;;;;;;4.40;99.90;;;;;;1914290;74;20116;-71
2022/11/13 10:10:35;;;;;;;;;;;4.50;99.90;;;;;;1950671;73;20305;-73
2022/11/13 10:13:01;;;;;;;;;;;4.80;99.90;;;;;;1897071;74;20238;-71
2022/11/13 10:15:28;;;;;;;;;;;5.00;99.90;;;;;;1918905;73;20123;-70
2022/11/13 10:18:02;;;;;;;;;;;5.20;99.90;;;;;;1912934;74;20128;-70
2022/11/13 10:20:30;;;;;;;;;;;5.20;99.90;;;;;;1913391;73;20320;-71
2022/11/13 10:22:59;;;;;;;;;;;5.20;99.90;;;;;;1915566;74;20386;-72
2022/11/13 10:25:26;;;;;;;;;;;5.10;99.90;;;;;;1913673;74;20139;-70
2022/11/13 10:27:55;;;;;;;;;;;5.10;99.90;;;;;;1959106;73;20251;-70
2022/11/13 10:30:22;;;;;;;;;;;5.60;99.90;;;;;;1888047;74;20118;-73
2022/11/13 10:32:48;;;;;;;;;;;6.10;99.90;;;;;;1906513;74;20122;-80
2022/11/13 10:35:17;;;;;;;;;;;6.00;99.90;;;;;;1893018;74;20196;-70
2022/11/13 10:38:03;;;;;;;;;;;6.00;99.90;;;;;;1936492;73;20112;-71
2022/11/13 10:40:34;;;;;;;;;;;6.00;99.90;;;;;;1928701;73;20208;-71
2022/11/13 10:43:15;;;;;;;;;;;6.40;99.90;;;;;;1912073;74;20151;-69
2022/11/13 10:45:42;;;;;;;;;;;6.80;99.90;;;;;;1949500;73;20169;-71
2022/11/13 10:48:19;;;;;;;;;;;6.60;99.90;;;;;;1948175;73;20221;-70
2022/11/13 10:50:47;;;;;;;;;;;6.60;99.90;;;;;;1950846;73;20452;-69
2022/11/13 10:53:15;;;;;;;;;;;7.00;99.90;;;;;;1952597;73;20199;-70
2022/11/13 10:55:41;;;;;;;;;;;7.30;99.90;;;;;;1948423;73;20169;-70
2022/11/13 10:58:13;;;;;;;;;;;7.80;99.90;;;;;;1946515;73;20382;-71
2022/11/13 11:00:43;;;;;;;;;;;8.30;99.90;;;;;;1952555;73;20138;-72
2022/11/13 11:03:09;;;;;;;;;;;8.50;99.90;;;;;;1943203;73;20147;-70
2022/11/13 11:05:36;;;;;;;;;;;8.60;99.90;;;;;;1897813;73;20368;-71
2022/11/13 11:08:04;;;;;;;;;;;8.60;99.90;;;;;;1908134;74;20259;-71
2022/11/13 11:10:32;;;;;;;;;;;8.60;99.90;;;;;;1887994;74;20362;-70
2022/11/13 11:13:00;;;;;;;;;;;8.50;99.90;;;;;;1923572;73;20387;-71
2022/11/13 11:15:34;;;;;;;;;;;8.60;99.90;;;;;;1896461;74;20152;-70
2022/11/13 11:18:06;;;;;;;;;;;8.30;99.90;;;;;;1933439;72;20206;-70
2022/11/13 11:20:41;;;;;;;;;;;8.90;99.90;;;;;;1906689;74;20118;-70
2022/11/13 11:23:26;;;;;;;;;;;8.90;99.90;;;;;;1909522;75;20329;-70
2022/11/13 11:26:03;;;;;;;;;;;9.00;99.90;;;;;;1953426;73;20142;-71
2022/11/13 11:28:37;;;;;;;;;;;9.70;99.90;;;;;;1915886;74;20143;-69
2022/11/13 11:31:06;;;;;;;;;;;9.50;99.90;;;;;;1946072;73;20145;-72
2022/11/13 11:33:36;;;;;;;;;;;9.40;99.90;;;;;;1859312;74;20119;-72
2022/11/13 11:36:05;;;;;;;;;;;9.80;99.90;;;;;;1954921;73;20223;-71
2022/11/13 11:38:42;;;;;;;;;;;9.80;99.90;;;;;;1876860;74;20188;-72
2022/11/13 11:41:11;;;;;;;;;;;10.00;99.90;;;;;;1905319;74;20330;-71
2022/11/13 11:43:39;;;;;;;;;;;10.10;99.90;;;;;;1941142;73;20146;-72
2022/11/13 11:46:07;;;;;;;;;;;10.00;99.90;;;;;;1924806;73;20108;-72
2022/11/13 11:48:34;;;;;;;;;;;10.60;99.90;;;;;;1929367;73;20200;-73
2022/11/13 11:51:03;;;;;;;;;;;10.70;99.90;;;;;;1927471;73;20292;-74
2022/11/13 11:53:44;;;;;;;;;;;10.60;99.90;;;;;;1940373;73;20169;-75
2022/11/13 11:56:13;;;;;;;;;;;10.70;99.90;;;;;;1916973;73;20339;-74
2022/11/13 11:58:50;;;;;;;;;;;11.30;99.90;;;;;;1914005;74;20116;-71
2022/11/13 12:01:24;;;;;;;;;;;10.70;99.90;;;;;;1934813;73;20192;-71
2022/11/13 12:03:55;;;;;;;;;;;10.90;99.90;;;;;;1916906;74;20146;-67
2022/11/13 12:06:24;;;;;;;;;;;10.90;99.90;;;;;;1916034;74;20112;-68
2022/11/13 12:09:09;;;;;;;;;;;10.40;99.90;;;;;;1925733;73;20141;-68
2022/11/13 12:11:40;;;;;;;;;;;10.60;99.90;;;;;;1873660;75;20119;-69
2022/11/13 12:14:11;;;;;;;;;;;10.40;99.90;;;;;;1951119;73;20220;-68
2022/11/13 12:16:57;;;;;;;;;;;10.20;99.90;;;;;;1884373;74;20347;-70
2022/11/13 12:19:26;;;;;;;;;;;11.00;99.90;;;;;;1942084;74;20120;-70
2022/11/13 12:22:00;;;;;;;;;;;11.20;99.90;;;;;;1892319;75;20123;-70
2022/11/13 12:24:37;;;;;;;;;;;11.90;99.90;;;;;;1899458;75;20185;-68
2022/11/13 12:27:05;;;;;;;;;;;11.90;99.90;;;;;;1949018;73;20378;-69
2022/11/13 12:29:40;;;;;;;;;;;11.90;99.90;;;;;;1902026;73;20116;-70
2022/11/13 12:32:08;;;;;;;;;;;11.70;99.90;;;;;;1940346;73;20174;-69
2022/11/13 12:34:36;;;;;;;;;;;11.10;99.90;;;;;;1914229;74;20131;-72
2022/11/13 12:37:05;;;;;;;;;;;12.00;99.90;;;;;;1897044;75;20151;-70
2022/11/13 12:39:36;;;;;;;;;;;12.40;99.90;;;;;;1915615;73;20119;-73
2022/11/13 12:42:05;;;;;;;;;;;12.70;99.90;;;;;;1948820;72;20139;-71
2022/11/13 12:44:33;;;;;;;;;;;13.00;99.90;;;;;;1925530;75;20183;-71
2022/11/13 12:47:00;;;;;;;;;;;12.60;99.90;;;;;;1914420;73;20147;-71
2022/11/13 12:49:28;;;;;;;;;;;12.90;99.90;;;;;;1924181;73;20461;-71
2022/11/13 12:52:02;;;;;;;;;;;13.50;99.90;;;;;;1896911;74;20160;-72
2022/11/13 12:54:29;;;;;;;;;;;13.40;99.90;;;;;;1914531;73;20121;-72
2022/11/13 12:57:06;;;;;;;;;;;13.60;99.90;;;;;;1959450;73;20150;-71
2022/11/13 12:59:34;;;;;;;;;;;13.80;99.90;;;;;;1917180;74;20150;-71
2022/11/13 13:02:02;;;;;;;;;;;13.80;99.90;;;;;;1916872;75;20140;-72
2022/11/13 13:04:45;;;;;;;;;;;13.80;99.90;;;;;;1949934;72;20129;-73
2022/11/13 13:07:16;;;;;;;;;;;13.80;99.90;;;;;;1912654;73;20116;-70
2022/11/13 13:09:44;;;;;;;;;;;14.20;99.90;;;;;;1921650;74;20112;-71
2022/11/13 13:12:17;;;;;;;;;;;13.90;99.90;;;;;;1913893;73;20156;-71
2022/11/13 13:14:47;;;;;;;;;;;14.20;99.90;;;;;;1908653;75;20106;-69
2022/11/13 13:17:34;;;;;;;;;;;13.90;99.90;;;;;;1943767;73;20339;-72
2022/11/13 13:20:01;;;;;;;;;;;13.80;99.90;;;;;;1858641;76;20393;-70
2022/11/13 13:22:30;;;;;;;;;;;14.30;99.90;;;;;;1931039;73;20113;-69
2022/11/13 13:24:58;;;;;;;;;;;13.60;99.90;;;;;;1932873;73;20126;-70
2022/11/13 13:27:26;;;;;;;;;;;14.30;99.90;;;;;;1911464;74;20130;-73
2022/11/13 13:29:52;;;;;;;;;;;14.40;99.90;;;;;;1938073;73;20123;-71
2022/11/13 13:32:37;;;;;;;;;;;14.30;99.90;;;;;;1923942;73;20121;-71
2022/11/13 13:35:08;;;;;;;;;;;13.80;99.90;;;;;;1931057;74;20112;-72
2022/11/13 13:37:49;;;;;;;;;;;13.20;99.90;;;;;;1931248;73;20170;-71
2022/11/13 13:40:18;;;;;;;;;;;13.70;99.90;;;;;;1887386;75;20331;-71
2022/11/13 13:42:52;;;;;;;;;;;13.50;99.90;;;;;;1927972;73;20393;-70
2022/11/13 13:45:20;;;;;;;;;;;13.90;99.90;;;;;;1926813;74;20158;-70
2022/11/13 13:47:48;;;;;;;;;;;14.50;99.90;;;;;;1933451;73;20245;-71
2022/11/13 13:50:16;;;;;;;;;;;14.70;99.90;;;;;;1929215;73;20132;-70
2022/11/13 13:52:43;;;;;;;;;;;14.80;99.90;;;;;;1928336;73;20164;-71
2022/11/13 13:55:17;;;;;;;;;;;14.40;99.90;;;;;;1933890;73;20361;-71
2022/11/13 13:57:44;;;;;;;;;;;14.80;99.90;;;;;;1903860;75;20145;-70
2022/11/13 14:00:13;;;;;;;;;;;14.60;99.90;;;;;;1931615;73;20154;-71
2022/11/13 14:02:47;;;;;;;;;;;14.60;99.90;;;;;;1868587;76;20132;-72
2022/11/13 14:05:17;;;;;;;;;;;14.90;99.90;;;;;;1881428;76;20120;-70
2022/11/13 14:07:46;;;;;;;;;;;15.30;99.90;;;;;;1927342;73;20149;-70
2022/11/13 14:10:15;;;;;;;;;;;15.40;99.90;;;;;;1904277;74;20149;-71
2022/11/13 14:12:42;;;;;;;;;;;15.40;99.90;;;;;;1901327;75;20348;-70
2022/11/13 14:15:16;;;;;;;;;;;15.40;99.90;;;;;;1883412;75;20356;-71
2022/11/13 14:17:43;;;;;;;;;;;15.00;99.90;;;;;;1875859;75;20155;-71
2022/11/13 14:20:10;;;;;;;;;;;15.10;99.90;;;;;;1942302;73;20116;-71
2022/11/13 14:22:38;;;;;;;;;;;15.10;99.90;;;;;;1927806;73;20321;-71
2022/11/13 14:25:05;;;;;;;;;;;15.50;99.90;;;;;;1925837;73;20338;-71
2022/11/13 14:27:31;;;;;;;;;;;15.80;99.90;;;;;;1908710;74;20114;-71
2022/11/13 14:29:59;;;;;;;;;;;15.70;99.90;;;;;;1935591;73;20107;-70
2022/11/13 14:32:29;;;;;;;;;;;15.30;99.90;;;;;;1877302;76;20127;-72
2022/11/13 14:34:57;;;;;;;;;;;15.30;99.90;;;;;;1874881;76;20116;-71